MSC Rania — 3EEB3 — position and weather

sailwx.info

Track history (hours):
 
Tides and Currents Weather Stations Pressure Air Temp Water Temp Dewpoint Dewpoint Depression Visibility Wind Speed Wind Dir Waves Ship Positions

MSC Rania

Last reported at 2016-Nov-19 23:33 UTC. Time now 2016-Dec-09 05:57 UTC.
Position N 01°15' E 103°54'.
Warning: this ship's position is 19 days out of date.

Length 332 m; draft 13.8 m.

Type: Ship (hazmat cat A). MMSI: 371752000.

Date/timePositionNaut miles runAvg speedWind from/ knotsBaromVisibWave heightAir tempDewpointWater temp
2016-Nov-19 23:33N 01°15' E 103°54'0 0.2
2016-Nov-19 22:22N 01°15' E 103°53'0 0.0
2016-Nov-19 20:22N 01°15' E 103°53'0 0.0
2016-Nov-19 17:29N 01°15' E 103°53'0 0.0
2016-Nov-19 14:10N 01°15' E 103°53'0 0.1
2016-Nov-19 09:25N 01°15' E 103°54'8 4.2
2016-Nov-19 07:33N 01°16' E 103°46'0 0.0
2016-Nov-19 05:29N 01°16' E 103°46'0 0.0
2016-Nov-19 04:29N 01°16' E 103°46'0 0.0
2016-Nov-19 03:29N 01°16' E 103°46'0 0.0
2016-Nov-19 02:32N 01°16' E 103°46'0 0.0
2016-Nov-19 01:29N 01°16' E 103°46'0 0.0
2016-Nov-19 00:26N 01°16' E 103°46'0 0.0
2016-Nov-18 23:29N 01°16' E 103°46'0 0.0
2016-Nov-18 20:23N 01°16' E 103°46'0 0.0
2016-Nov-18 18:31N 01°16' E 103°46'0 0.0
2016-Nov-18 17:28N 01°16' E 103°46'0 0.0
2016-Nov-18 14:28N 01°16' E 103°46'0 0.0
2016-Nov-18 12:28N 01°16' E 103°46'0 0.0
2016-Nov-18 11:16N 01°16' E 103°46'0 0.0
2016-Nov-18 09:18N 01°16' E 103°46'9 5.0
2016-Nov-18 07:34N 01°14' E 103°54'  
2016-Nov-14 15:14N 22°18' E 114°06'16 4.2
2016-Nov-14 11:32N 22°28' E 113°53'0 0.0
2016-Nov-14 08:26N 22°28' E 113°53'0 0.0
2016-Nov-14 05:26N 22°28' E 113°53'15511.1
2016-Nov-13 15:31N 22°32' E 116°41'3214.8
2016-Nov-13 13:21N 22°52' E 117°08'4014.2
2016-Nov-13 10:33N 23°16' E 117°42'2814.2
2016-Nov-13 08:33N 23°33' E 118°07'8015.1
2016-Nov-13 03:17N 24°15' E 119°21'37015.6
2016-Nov-12 03:33N 29°53' E 122°11'7 7.2
2016-Nov-12 02:33N 29°53' E 122°03'0 0.0
2016-Nov-12 00:30N 29°53' E 122°03'0 0.0
2016-Nov-11 23:29N 29°53' E 122°03'0 0.0
2016-Nov-11 19:23N 29°53' E 122°03'0 0.0
2016-Nov-11 15:29N 29°53' E 122°03'0 0.0
2016-Nov-11 14:29N 29°53' E 122°03'31 7.8
2016-Nov-11 10:33N 29°44' E 122°37'10012.1
2016-Nov-11 02:18N 31°16' E 121°51'911.0
2016-Nov-11 01:29N 31°20' E 121°42'2 0.3
2016-Nov-10 16:30N 31°20' E 121°39'0 0.0
2016-Nov-10 15:30N 31°20' E 121°39'2 0.6
2016-Nov-10 11:33N 31°20' E 121°42'  
Track history (hours):
 
Tides and Currents Weather Stations Pressure Air Temp Water Temp Dewpoint Dewpoint Depression Visibility Wind Speed Wind Dir Waves Ship Positions

MSC Rania

Last reported at 2016-Nov-19 23:33 UTC. Time now 2016-Dec-09 05:57 UTC.
Position N 01°15' E 103°54'.
Warning: this ship's position is 19 days out of date.

Length 332 m; draft 13.8 m.

Type: Ship (hazmat cat A). MMSI: 371752000.

Date/timePositionNaut miles runAvg speedWind from/ knotsBaromVisibWave heightAir tempDewpointWater temp
2016-Nov-19 23:33N 01°15' E 103°54'0 0.2
2016-Nov-19 22:22N 01°15' E 103°53'0 0.0
2016-Nov-19 20:22N 01°15' E 103°53'0 0.0
2016-Nov-19 17:29N 01°15' E 103°53'0 0.0
2016-Nov-19 14:10N 01°15' E 103°53'0 0.1
2016-Nov-19 09:25N 01°15' E 103°54'8 4.2
2016-Nov-19 07:33N 01°16' E 103°46'0 0.0
2016-Nov-19 05:29N 01°16' E 103°46'0 0.0
2016-Nov-19 04:29N 01°16' E 103°46'0 0.0
2016-Nov-19 03:29N 01°16' E 103°46'0 0.0
2016-Nov-19 02:32N 01°16' E 103°46'0 0.0
2016-Nov-19 01:29N 01°16' E 103°46'0 0.0
2016-Nov-19 00:26N 01°16' E 103°46'0 0.0
2016-Nov-18 23:29N 01°16' E 103°46'0 0.0
2016-Nov-18 20:23N 01°16' E 103°46'0 0.0
2016-Nov-18 18:31N 01°16' E 103°46'0 0.0
2016-Nov-18 17:28N 01°16' E 103°46'0 0.0
2016-Nov-18 14:28N 01°16' E 103°46'0 0.0
2016-Nov-18 12:28N 01°16' E 103°46'0 0.0
2016-Nov-18 11:16N 01°16' E 103°46'0 0.0
2016-Nov-18 09:18N 01°16' E 103°46'9 5.0
2016-Nov-18 07:34N 01°14' E 103°54'  
2016-Nov-14 15:14N 22°18' E 114°06'16 4.2
2016-Nov-14 11:32N 22°28' E 113°53'0 0.0
2016-Nov-14 08:26N 22°28' E 113°53'0 0.0
2016-Nov-14 05:26N 22°28' E 113°53'15511.1
2016-Nov-13 15:31N 22°32' E 116°41'3214.8
2016-Nov-13 13:21N 22°52' E 117°08'4014.2
2016-Nov-13 10:33N 23°16' E 117°42'2814.2
2016-Nov-13 08:33N 23°33' E 118°07'8015.1
2016-Nov-13 03:17N 24°15' E 119°21'37015.6
2016-Nov-12 03:33N 29°53' E 122°11'7 7.2
2016-Nov-12 02:33N 29°53' E 122°03'0 0.0
2016-Nov-12 00:30N 29°53' E 122°03'0 0.0
2016-Nov-11 23:29N 29°53' E 122°03'0 0.0
2016-Nov-11 19:23N 29°53' E 122°03'0 0.0
2016-Nov-11 15:29N 29°53' E 122°03'0 0.0
2016-Nov-11 14:29N 29°53' E 122°03'31 7.8
2016-Nov-11 10:33N 29°44' E 122°37'10012.1
2016-Nov-11 02:18N 31°16' E 121°51'911.0
2016-Nov-11 01:29N 31°20' E 121°42'2 0.3
2016-Nov-10 16:30N 31°20' E 121°39'0 0.0
2016-Nov-10 15:30N 31°20' E 121°39'2 0.6
2016-Nov-10 11:33N 31°20' E 121°42'  

Dump ship's entire track history